AirNav   TITAN Aviation Fuels
 
 914 users online  

88WS Ottos Airport
Verona, Wisconsin, USA


FAA INFORMATION EFFECTIVE 26 JANUARY 2023

Location

FAA Identifier: 88WS
Lat/Long: 42-55-51.5200N 089-37-29.0950W
42-55.858667N 089-37.484917W
42.9309778,-89.6247486
(estimated)
Elevation: 916.6 ft. / 279 m (estimated)
From city: 5 miles SW of VERONA, WI
Time zone: UTC -6 (UTC -5 during Daylight Saving Time)
Zip code: 53508

Airport Operations

Airport use: Private use. Permission required prior to landing
Activation date: 05/2021
Control tower: no
ARTCC: CHICAGO CENTER
FSS: GREEN BAY FLIGHT SERVICE STATION
Attendance: 
Segmented circle: no

Airport Communications

CTAF: 122.9
WX AWOS-3 at C29 (12 nm N): 118.675 (608-833-1686)
WX ASOS at MSN (18 nm NE): PHONE 608-249-0615
WX AWOS-3 at EFT (19 nm S): 118.375 (608-328-8359)

Nearby radio navigation aids

VOR radial/distance  VOR name  Freq  Var
MSNr221/17.9MADISON VORTAC108.6003E
JVLr311/32.0JANESVILLE VOR/DME114.3003E
DLLr168/37.7DELLS VORTAC117.0003E

Airport Services

Runway Information

Runway 9/27

Dimensions: 900 x 65 ft. / 274 x 20 m
Surface: turf
RUNWAY 9  RUNWAY 27
Latitude: 42-55.861167N42-55.856167N
Longitude: 089-37.585667W089-37.384167W
Elevation: 914.0 ft.915.7 ft.
Traffic pattern: leftleft
Runway heading: 092 true272 true

Airport Ownership and Management from official FAA records

Ownership: Privately-owned
Owner: TREVER GENE OTTO
1371 STATE RD 92
VERONA, WI 53593
Phone 920-740-6495
Manager: TREVER GENE OTTO
1371 STATE RD 92
VERONA, WI 53593
Phone 920-740-6495

Airport Operational Statistics

Aircraft based on the field: 4
Single engine airplanes: 1
Multi engine airplanes: 1
Helicopters: 1
Gliders airplanes: 1
    

Instrument Procedures

There are no published instrument procedures at 88WS.

Some nearby airports with instrument procedures:

C29 - Middleton Municipal Airport - Morey Field (12 nm N)
KMSN - Dane County Regional Airport-Truax Field (18 nm NE)
KEFT - Monroe Municipal Airport (19 nm S)
87Y - Blackhawk Airfield (22 nm NE)
91C - Sauk/Prairie Airport (23 nm N)
 
Loc | Ops | Rwys | IFR | FBO | Links
Com | Nav | Svcs | Stats | Notes
Aerial photo
No photo
 
Airport distance calculator
Flying to Ottos Airport? Find the distance to fly.

From to 88WS

Sunrise and sunset
Times for 27-Jan-2023
 Local
(UTC-6)
 Zulu
(UTC)
Morning civil twilight06:4912:49
Sunrise07:1913:19
Sunset17:0323:03
Evening civil twilight17:3423:34

Current date and time
Zulu (UTC)  27-Jan-2023 12:51:56
Local (UTC-6)  27-Jan-2023 06:51:56
 
METAR
KC29 
12nm N 
271235Z AUTO 17010G17KT 10SM SCT070 OVC080 M08/M10 A2968 RMK AO1 T10801105
KMSN 
17nm NE 
271228Z 18012KT 10SM -SN BKN055 OVC080 M08/M12 A2969 RMK AO2 SNB27 P0000 T10831122
KEFT 
20nm S 
271235Z AUTO 19016G22KT 10SM SCT050 SCT070 BKN085 M08/M10 A2970 RMK AO2 T10771098
TAF
KMSN 
17nm NE 
271127Z 2712/2812 18014G22KT P6SM VCSH OVC080 FM271300 19016G26KT 2SM -SN BR OVC045 FM271700 21015G27KT 1SM -SN BR OVC013 FM271800 22015G25KT P6SM -SN OVC011 FM272200 28014G24KT P6SM VCSH BKN022 FM280900 29005KT P6SM BKN060
NOTAMs
Click for the latest NOTAMs
NOTAMs are issued by the DoD/FAA and will open in a separate window not controlled by AirNav.

 

 
 

Would you like to see your business listed on this page?

 If your business provides an interesting product or service to pilots, flight crews, aircraft, or users of the Ottos Airport, you should consider listing it here.  To start the listing process, click on the button below
 
Add a business
 

Other Pages about Ottos Airport

Update a link
 
Copyright © AirNav, LLC. All rights reserved. Privacy Policy  Contact